sensor_id;sensor_type;location;lat;lon;timestamp;temperature;humidity
55365;DHT22;41245;45.384;20.390;2022-08-21T00:00:55;589.10;128.00
55365;DHT22;41245;45.384;20.390;2022-08-21T00:03:21;589.00;128.00
55365;DHT22;41245;45.384;20.390;2022-08-21T00:05:49;589.00;128.00
55365;DHT22;41245;45.384;20.390;2022-08-21T00:08:17;588.90;128.00
55365;DHT22;41245;45.384;20.390;2022-08-21T00:10:43;589.00;128.00
55365;DHT22;41245;45.384;20.390;2022-08-21T00:13:11;589.00;128.00
55365;DHT22;41245;45.384;20.390;2022-08-21T00:15:38;589.10;128.00
55365;DHT22;41245;45.384;20.390;2022-08-21T00:18:06;589.10;128.00
55365;DHT22;41245;45.384;20.390;2022-08-21T00:20:33;588.90;128.00
55365;DHT22;41245;45.384;20.390;2022-08-21T00:22:59;588.90;128.00
55365;DHT22;41245;45.384;20.390;2022-08-21T00:25:25;588.90;128.00
55365;DHT22;41245;45.384;20.390;2022-08-21T00:27:51;589.00;128.00
55365;DHT22;41245;45.384;20.390;2022-08-21T00:30:18;589.10;128.00
55365;DHT22;41245;45.384;20.390;2022-08-21T00:32:45;589.10;128.00
55365;DHT22;41245;45.384;20.390;2022-08-21T00:35:14;589.10;128.00
55365;DHT22;41245;45.384;20.390;2022-08-21T00:37:40;589.10;128.00
55365;DHT22;41245;45.384;20.390;2022-08-21T00:40:10;589.10;128.00
55365;DHT22;41245;45.384;20.390;2022-08-21T00:42:36;589.10;128.00
55365;DHT22;41245;45.384;20.390;2022-08-21T00:45:03;589.10;128.00
55365;DHT22;41245;45.384;20.390;2022-08-21T00:47:29;589.10;128.00
55365;DHT22;41245;45.384;20.390;2022-08-21T00:49:55;589.20;128.00
55365;DHT22;41245;45.384;20.390;2022-08-21T00:52:26;589.00;128.00
55365;DHT22;41245;45.384;20.390;2022-08-21T00:54:54;589.20;128.00
55365;DHT22;41245;45.384;20.390;2022-08-21T00:57:26;589.20;128.00
55365;DHT22;41245;45.384;20.390;2022-08-21T00:59:56;589.30;128.00
55365;DHT22;41245;45.384;20.390;2022-08-21T01:02:23;589.30;128.00
55365;DHT22;41245;45.384;20.390;2022-08-21T01:04:49;589.30;128.00
55365;DHT22;41245;45.384;20.390;2022-08-21T01:07:15;589.40;128.00
55365;DHT22;41245;45.384;20.390;2022-08-21T01:09:41;589.40;128.00
55365;DHT22;41245;45.384;20.390;2022-08-21T01:12:08;589.40;128.00
55365;DHT22;41245;45.384;20.390;2022-08-21T01:14:34;589.50;128.00
55365;DHT22;41245;45.384;20.390;2022-08-21T01:17:01;589.50;128.00
55365;DHT22;41245;45.384;20.390;2022-08-21T01:19:29;589.50;128.00
55365;DHT22;41245;45.384;20.390;2022-08-21T01:21:55;589.50;128.00
55365;DHT22;41245;45.384;20.390;2022-08-21T01:24:22;589.50;128.00
55365;DHT22;41245;45.384;20.390;2022-08-21T01:26:49;589.50;128.00
55365;DHT22;41245;45.384;20.390;2022-08-21T01:31:52;589.50;128.00
55365;DHT22;41245;45.384;20.390;2022-08-21T01:34:19;589.50;128.00
55365;DHT22;41245;45.384;20.390;2022-08-21T01:36:46;589.50;128.00
55365;DHT22;41245;45.384;20.390;2022-08-21T01:39:12;589.40;128.00
55365;DHT22;41245;45.384;20.390;2022-08-21T01:41:38;589.30;128.00
55365;DHT22;41245;45.384;20.390;2022-08-21T01:44:04;589.30;128.00
55365;DHT22;41245;45.384;20.390;2022-08-21T01:46:30;589.30;128.00
55365;DHT22;41245;45.384;20.390;2022-08-21T01:48:56;589.20;128.00
55365;DHT22;41245;45.384;20.390;2022-08-21T01:51:22;589.20;128.00
55365;DHT22;41245;45.384;20.390;2022-08-21T01:53:48;589.20;128.00
55365;DHT22;41245;45.384;20.390;2022-08-21T01:56:14;589.20;128.00
55365;DHT22;41245;45.384;20.390;2022-08-21T01:58:41;589.20;128.00
55365;DHT22;41245;45.384;20.390;2022-08-21T02:01:08;589.20;128.00
55365;DHT22;41245;45.384;20.390;2022-08-21T02:03:35;589.20;128.00
55365;DHT22;41245;45.384;20.390;2022-08-21T02:06:01;589.20;128.00
55365;DHT22;41245;45.384;20.390;2022-08-21T02:08:28;589.10;128.00
55365;DHT22;41245;45.384;20.390;2022-08-21T02:10:54;589.10;128.00
55365;DHT22;41245;45.384;20.390;2022-08-21T02:13:20;589.10;128.00
55365;DHT22;41245;45.384;20.390;2022-08-21T02:15:45;589.10;128.00
55365;DHT22;41245;45.384;20.390;2022-08-21T02:18:11;589.10;128.00
55365;DHT22;41245;45.384;20.390;2022-08-21T02:20:40;589.10;128.00
55365;DHT22;41245;45.384;20.390;2022-08-21T02:23:07;589.10;128.00
55365;DHT22;41245;45.384;20.390;2022-08-21T02:25:34;589.10;128.00
55365;DHT22;41245;45.384;20.390;2022-08-21T02:28:07;589.10;128.00
55365;DHT22;41245;45.384;20.390;2022-08-21T02:30:36;589.10;128.00
55365;DHT22;41245;45.384;20.390;2022-08-21T02:33:04;589.10;128.00
55365;DHT22;41245;45.384;20.390;2022-08-21T02:35:30;589.00;128.00
55365;DHT22;41245;45.384;20.390;2022-08-21T02:38:02;589.00;128.00
55365;DHT22;41245;45.384;20.390;2022-08-21T02:40:30;589.00;128.00
55365;DHT22;41245;45.384;20.390;2022-08-21T02:42:58;588.90;128.00
55365;DHT22;41245;45.384;20.390;2022-08-21T02:45:25;588.80;128.00
55365;DHT22;41245;45.384;20.390;2022-08-21T02:47:53;588.80;128.00
55365;DHT22;41245;45.384;20.390;2022-08-21T02:50:28;588.90;128.00
55365;DHT22;41245;45.384;20.390;2022-08-21T02:52:55;564.10;128.00
55365;DHT22;41245;45.384;20.390;2022-08-21T02:55:22;564.00;128.00
55365;DHT22;41245;45.384;20.390;2022-08-21T02:57:48;564.00;128.00
55365;DHT22;41245;45.384;20.390;2022-08-21T03:00:15;564.00;128.00
55365;DHT22;41245;45.384;20.390;2022-08-21T03:02:41;563.90;128.00
55365;DHT22;41245;45.384;20.390;2022-08-21T03:05:09;564.00;128.00
55365;DHT22;41245;45.384;20.390;2022-08-21T03:07:36;564.00;128.00
55365;DHT22;41245;45.384;20.390;2022-08-21T03:10:03;563.90;128.00
55365;DHT22;41245;45.384;20.390;2022-08-21T03:12:29;564.00;128.00
55365;DHT22;41245;45.384;20.390;2022-08-21T03:14:55;564.00;128.00
55365;DHT22;41245;45.384;20.390;2022-08-21T03:17:21;564.10;128.00
55365;DHT22;41245;45.384;20.390;2022-08-21T03:19:47;563.80;128.00
55365;DHT22;41245;45.384;20.390;2022-08-21T03:22:12;563.70;128.00
55365;DHT22;41245;45.384;20.390;2022-08-21T03:24:38;563.80;128.00
55365;DHT22;41245;45.384;20.390;2022-08-21T03:27:04;563.80;128.00
55365;DHT22;41245;45.384;20.390;2022-08-21T03:29:29;563.90;128.00
55365;DHT22;41245;45.384;20.390;2022-08-21T03:31:55;564.00;128.00
55365;DHT22;41245;45.384;20.390;2022-08-21T03:34:21;564.10;128.00
55365;DHT22;41245;45.384;20.390;2022-08-21T03:36:48;588.80;128.00
55365;DHT22;41245;45.384;20.390;2022-08-21T03:39:16;589.00;128.00
55365;DHT22;41245;45.384;20.390;2022-08-21T03:41:42;589.00;128.00
55365;DHT22;41245;45.384;20.390;2022-08-21T03:44:07;589.10;128.00
55365;DHT22;41245;45.384;20.390;2022-08-21T03:46:33;589.10;128.00
55365;DHT22;41245;45.384;20.390;2022-08-21T03:48:59;589.10;128.00
55365;DHT22;41245;45.384;20.390;2022-08-21T03:51:25;589.10;128.00
55365;DHT22;41245;45.384;20.390;2022-08-21T03:53:51;589.10;128.00
55365;DHT22;41245;45.384;20.390;2022-08-21T03:56:17;589.10;128.00
55365;DHT22;41245;45.384;20.390;2022-08-21T03:58:43;589.10;128.00
55365;DHT22;41245;45.384;20.390;2022-08-21T04:01:10;588.80;128.00
55365;DHT22;41245;45.384;20.390;2022-08-21T04:03:37;588.80;128.00
55365;DHT22;41245;45.384;20.390;2022-08-21T04:06:03;588.80;128.00
55365;DHT22;41245;45.384;20.390;2022-08-21T04:08:29;588.90;128.00
55365;DHT22;41245;45.384;20.390;2022-08-21T04:10:57;588.80;128.00
55365;DHT22;41245;45.384;20.390;2022-08-21T04:13:24;589.00;128.00
55365;DHT22;41245;45.384;20.390;2022-08-21T04:15:52;589.10;128.00
55365;DHT22;41245;45.384;20.390;2022-08-21T04:18:17;589.10;128.00
55365;DHT22;41245;45.384;20.390;2022-08-21T04:20:46;589.10;128.00
55365;DHT22;41245;45.384;20.390;2022-08-21T04:23:13;589.10;128.00
55365;DHT22;41245;45.384;20.390;2022-08-21T04:25:39;589.10;128.00
55365;DHT22;41245;45.384;20.390;2022-08-21T04:28:04;588.80;128.00
55365;DHT22;41245;45.384;20.390;2022-08-21T04:30:30;589.00;128.00
55365;DHT22;41245;45.384;20.390;2022-08-21T04:32:57;589.10;128.00
55365;DHT22;41245;45.384;20.390;2022-08-21T04:35:24;589.10;128.00
55365;DHT22;41245;45.384;20.390;2022-08-21T04:37:50;564.10;128.00
55365;DHT22;41245;45.384;20.390;2022-08-21T04:40:18;563.90;128.00
55365;DHT22;41245;45.384;20.390;2022-08-21T04:42:50;563.70;2099.20
55365;DHT22;41245;45.384;20.390;2022-08-21T04:47:51;563.60;2099.20
55365;DHT22;41245;45.384;20.390;2022-08-21T04:50:18;563.60;2099.20
55365;DHT22;41245;45.384;20.390;2022-08-21T04:52:44;563.60;2099.20
55365;DHT22;41245;45.384;20.390;2022-08-21T04:55:10;563.60;2099.20
55365;DHT22;41245;45.384;20.390;2022-08-21T04:57:36;563.60;2099.20
55365;DHT22;41245;45.384;20.390;2022-08-21T05:00:06;563.70;2099.20
55365;DHT22;41245;45.384;20.390;2022-08-21T05:02:32;563.40;2099.20
55365;DHT22;41245;45.384;20.390;2022-08-21T05:04:59;563.30;2099.20
55365;DHT22;41245;45.384;20.390;2022-08-21T05:07:28;563.60;2099.20
55365;DHT22;41245;45.384;20.390;2022-08-21T05:09:55;538.40;2073.60
55365;DHT22;41245;45.384;20.390;2022-08-21T05:12:21;538.20;2073.60
55365;DHT22;41245;45.384;20.390;2022-08-21T05:14:47;538.20;2073.60
55365;DHT22;41245;45.384;20.390;2022-08-21T05:17:13;538.20;2073.60
55365;DHT22;41245;45.384;20.390;2022-08-21T05:19:40;538.20;2073.60
55365;DHT22;41245;45.384;20.390;2022-08-21T05:22:05;538.30;2073.60
55365;DHT22;41245;45.384;20.390;2022-08-21T05:24:32;538.30;2073.60
55365;DHT22;41245;45.384;20.390;2022-08-21T05:26:58;538.20;2073.60
55365;DHT22;41245;45.384;20.390;2022-08-21T05:29:24;538.20;2073.60
55365;DHT22;41245;45.384;20.390;2022-08-21T05:31:50;538.30;2073.60
55365;DHT22;41245;45.384;20.390;2022-08-21T05:34:21;538.30;2073.60
55365;DHT22;41245;45.384;20.390;2022-08-21T05:36:47;538.20;2073.60
55365;DHT22;41245;45.384;20.390;2022-08-21T05:39:14;538.20;2073.60
55365;DHT22;41245;45.384;20.390;2022-08-21T05:41:40;538.00;2073.60
55365;DHT22;41245;45.384;20.390;2022-08-21T05:44:05;538.20;2073.60
55365;DHT22;41245;45.384;20.390;2022-08-21T05:46:31;538.30;2073.60
55365;DHT22;41245;45.384;20.390;2022-08-21T05:48:57;538.10;2073.60
55365;DHT22;41245;45.384;20.390;2022-08-21T05:51:23;538.20;2073.60
55365;DHT22;41245;45.384;20.390;2022-08-21T05:53:48;537.80;2073.60
55365;DHT22;41245;45.384;20.390;2022-08-21T05:56:15;537.90;2073.60
55365;DHT22;41245;45.384;20.390;2022-08-21T05:58:41;537.80;2073.60
55365;DHT22;41245;45.384;20.390;2022-08-21T06:01:07;537.80;2073.60
55365;DHT22;41245;45.384;20.390;2022-08-21T06:03:37;512.90;2048.00
55365;DHT22;41245;45.384;20.390;2022-08-21T06:06:03;537.70;2073.60
55365;DHT22;41245;45.384;20.390;2022-08-21T06:08:29;512.90;2048.00
55365;DHT22;41245;45.384;20.390;2022-08-21T06:10:57;512.50;2048.00
55365;DHT22;41245;45.384;20.390;2022-08-21T06:13:23;512.80;2048.00
55365;DHT22;41245;45.384;20.390;2022-08-21T06:15:59;512.80;2048.00
55365;DHT22;41245;45.384;20.390;2022-08-21T06:18:25;512.90;2048.00
55365;DHT22;41245;45.384;20.390;2022-08-21T06:20:51;537.60;2073.60
55365;DHT22;41245;45.384;20.390;2022-08-21T06:23:16;537.60;2073.60
55365;DHT22;41245;45.384;20.390;2022-08-21T06:25:42;537.70;2073.60
55365;DHT22;41245;45.384;20.390;2022-08-21T06:28:09;537.80;2073.60
55365;DHT22;41245;45.384;20.390;2022-08-21T06:30:37;537.80;2073.60
55365;DHT22;41245;45.384;20.390;2022-08-21T06:33:03;537.70;2073.60
55365;DHT22;41245;45.384;20.390;2022-08-21T06:35:29;537.80;2073.60
55365;DHT22;41245;45.384;20.390;2022-08-21T06:37:56;537.80;2073.60
55365;DHT22;41245;45.384;20.390;2022-08-21T06:40:22;537.80;2073.60
55365;DHT22;41245;45.384;20.390;2022-08-21T06:42:48;537.80;2073.60
55365;DHT22;41245;45.384;20.390;2022-08-21T06:45:14;512.80;2048.00
55365;DHT22;41245;45.384;20.390;2022-08-21T06:47:40;512.40;2048.00
55365;DHT22;41245;45.384;20.390;2022-08-21T06:50:06;512.70;2048.00
55365;DHT22;41245;45.384;20.390;2022-08-21T06:52:36;537.60;2073.60
55365;DHT22;41245;45.384;20.390;2022-08-21T06:55:05;537.80;2073.60
55365;DHT22;41245;45.384;20.390;2022-08-21T06:57:31;537.80;2073.60
55365;DHT22;41245;45.384;20.390;2022-08-21T06:59:57;537.90;2073.60
55365;DHT22;41245;45.384;20.390;2022-08-21T07:02:22;537.90;2073.60
55365;DHT22;41245;45.384;20.390;2022-08-21T07:04:48;537.70;2073.60
55365;DHT22;41245;45.384;20.390;2022-08-21T07:07:14;537.80;2073.60
55365;DHT22;41245;45.384;20.390;2022-08-21T07:09:39;537.90;2073.60
55365;DHT22;41245;45.384;20.390;2022-08-21T07:12:05;537.90;2073.60
55365;DHT22;41245;45.384;20.390;2022-08-21T07:14:32;538.00;2073.60
55365;DHT22;41245;45.384;20.390;2022-08-21T07:16:57;537.90;2073.60
55365;DHT22;41245;45.384;20.390;2022-08-21T07:19:23;537.80;2073.60
55365;DHT22;41245;45.384;20.390;2022-08-21T07:21:49;537.70;2073.60
55365;DHT22;41245;45.384;20.390;2022-08-21T07:24:15;537.70;2073.60
55365;DHT22;41245;45.384;20.390;2022-08-21T07:26:41;512.90;2048.00
55365;DHT22;41245;45.384;20.390;2022-08-21T07:29:06;512.90;2048.00
55365;DHT22;41245;45.384;20.390;2022-08-21T07:31:32;537.70;2073.60
55365;DHT22;41245;45.384;20.390;2022-08-21T07:33:58;537.70;2073.60
55365;DHT22;41245;45.384;20.390;2022-08-21T07:36:25;537.90;2073.60
55365;DHT22;41245;45.384;20.390;2022-08-21T07:38:51;538.00;2073.60
55365;DHT22;41245;45.384;20.390;2022-08-21T07:41:27;538.30;2073.60
55365;DHT22;41245;45.384;20.390;2022-08-21T07:43:57;538.40;2073.60
55365;DHT22;41245;45.384;20.390;2022-08-21T07:46:24;538.40;2073.60
55365;DHT22;41245;45.384;20.390;2022-08-21T07:48:50;538.40;2073.60
55365;DHT22;41245;45.384;20.390;2022-08-21T07:51:17;538.30;2073.60
55365;DHT22;41245;45.384;20.390;2022-08-21T07:53:48;538.20;2073.60
55365;DHT22;41245;45.384;20.390;2022-08-21T07:56:15;538.10;2073.60
55365;DHT22;41245;45.384;20.390;2022-08-21T07:58:41;537.90;2073.60
55365;DHT22;41245;45.384;20.390;2022-08-21T08:01:07;537.90;2073.60
55365;DHT22;41245;45.384;20.390;2022-08-21T08:03:33;538.10;2073.60
55365;DHT22;41245;45.384;20.390;2022-08-21T08:05:59;537.80;2073.60
55365;DHT22;41245;45.384;20.390;2022-08-21T08:08:25;537.90;2073.60
55365;DHT22;41245;45.384;20.390;2022-08-21T08:10:52;538.30;2073.60
55365;DHT22;41245;45.384;20.390;2022-08-21T08:13:18;563.20;2099.20
55365;DHT22;41245;45.384;20.390;2022-08-21T08:15:44;563.20;2099.20
55365;DHT22;41245;45.384;20.390;2022-08-21T08:18:10;563.40;2099.20
55365;DHT22;41245;45.384;20.390;2022-08-21T08:20:36;563.60;2099.20
55365;DHT22;41245;45.384;20.390;2022-08-21T08:23:01;564.00;2099.20
55365;DHT22;41245;45.384;20.390;2022-08-21T08:25:27;564.00;2099.20
55365;DHT22;41245;45.384;20.390;2022-08-21T08:27:53;588.80;2099.20
55365;DHT22;41245;45.384;20.390;2022-08-21T08:30:20;588.90;2099.20
55365;DHT22;41245;45.384;20.390;2022-08-21T08:32:47;589.00;2099.20
55365;DHT22;41245;45.384;20.390;2022-08-21T08:35:13;588.80;2099.20
55365;DHT22;41245;45.384;20.390;2022-08-21T08:37:40;588.90;2099.20
55365;DHT22;41245;45.384;20.390;2022-08-21T08:40:40;589.00;2099.20
55365;DHT22;41245;45.384;20.390;2022-08-21T08:43:10;589.20;2099.20
55365;DHT22;41245;45.384;20.390;2022-08-21T08:45:37;589.10;2099.20
55365;DHT22;41245;45.384;20.390;2022-08-21T08:48:06;589.00;2099.20
55365;DHT22;41245;45.384;20.390;2022-08-21T08:50:55;589.10;2099.20
55365;DHT22;41245;45.384;20.390;2022-08-21T08:53:33;589.40;2099.20
55365;DHT22;41245;45.384;20.390;2022-08-21T08:56:03;589.60;2099.20
55365;DHT22;41245;45.384;20.390;2022-08-21T08:58:33;589.60;2099.20
55365;DHT22;41245;45.384;20.390;2022-08-21T09:01:00;589.50;2099.20
55365;DHT22;41245;45.384;20.390;2022-08-21T09:03:27;589.40;2099.20
55365;DHT22;41245;45.384;20.390;2022-08-21T09:11:41;614.40;2099.20
55365;DHT22;41245;45.384;20.390;2022-08-21T09:14:14;589.50;2099.20
55365;DHT22;41245;45.384;20.390;2022-08-21T09:17:10;589.50;2099.20
55365;DHT22;41245;45.384;20.390;2022-08-21T09:19:43;589.50;2099.20
55365;DHT22;41245;45.384;20.390;2022-08-21T09:22:34;589.40;2099.20
55365;DHT22;41245;45.384;20.390;2022-08-21T09:27:46;589.30;2099.20
55365;DHT22;41245;45.384;20.390;2022-08-21T09:30:12;589.30;2099.20
55365;DHT22;41245;45.384;20.390;2022-08-21T09:32:39;589.40;2099.20
55365;DHT22;41245;45.384;20.390;2022-08-21T09:37:32;589.60;2099.20
55365;DHT22;41245;45.384;20.390;2022-08-21T09:40:00;589.50;2099.20
55365;DHT22;41245;45.384;20.390;2022-08-21T09:42:31;589.60;2099.20
55365;DHT22;41245;45.384;20.390;2022-08-21T09:45:13;614.40;2099.20
55365;DHT22;41245;45.384;20.390;2022-08-21T09:47:41;614.50;2099.20
55365;DHT22;41245;45.384;20.390;2022-08-21T09:50:10;614.50;2099.20
55365;DHT22;41245;45.384;20.390;2022-08-21T09:52:43;614.40;2099.20
55365;DHT22;41245;45.384;20.390;2022-08-21T09:55:29;614.70;2099.20
55365;DHT22;41245;45.384;20.390;2022-08-21T09:58:16;589.60;2099.20
55365;DHT22;41245;45.384;20.390;2022-08-21T10:00:43;614.80;2099.20
55365;DHT22;41245;45.384;20.390;2022-08-21T10:03:21;614.50;2099.20
55365;DHT22;41245;45.384;20.390;2022-08-21T10:06:07;614.50;2099.20
55365;DHT22;41245;45.384;20.390;2022-08-21T10:08:38;614.60;2432.00
55365;DHT22;41245;45.384;20.390;2022-08-21T10:11:13;614.80;2432.00
55365;DHT22;41245;45.384;20.390;2022-08-21T10:14:09;615.20;128.00
55365;DHT22;41245;45.384;20.390;2022-08-21T10:17:12;640.20;128.00
55365;DHT22;41245;45.384;20.390;2022-08-21T10:22:48;666.00;153.60
55365;DHT22;41245;45.384;20.390;2022-08-21T10:25:23;666.40;153.60
55365;DHT22;41245;45.384;20.390;2022-08-21T10:30:41;666.30;153.60
55365;DHT22;41245;45.384;20.390;2022-08-21T10:36:13;666.40;153.60
55365;DHT22;41245;45.384;20.390;2022-08-21T10:47:18;640.90;128.00
55365;DHT22;41245;45.384;20.390;2022-08-21T10:55:22;665.60;153.60
55365;DHT22;41245;45.384;20.390;2022-08-21T10:57:55;666.10;153.60
55365;DHT22;41245;45.384;20.390;2022-08-21T11:00:26;666.30;153.60
55365;DHT22;41245;45.384;20.390;2022-08-21T11:03:05;691.20;153.60
55365;DHT22;41245;45.384;20.390;2022-08-21T11:08:14;691.60;153.60
55365;DHT22;41245;45.384;20.390;2022-08-21T11:13:58;691.80;153.60
55365;DHT22;41245;45.384;20.390;2022-08-21T11:16:47;691.80;153.60
55365;DHT22;41245;45.384;20.390;2022-08-21T11:19:33;691.60;153.60
55365;DHT22;41245;45.384;20.390;2022-08-21T11:27:29;691.70;153.60
55365;DHT22;41245;45.384;20.390;2022-08-21T11:29:59;691.70;153.60
55365;DHT22;41245;45.384;20.390;2022-08-21T11:35:46;716.80;179.20
55365;DHT22;41245;45.384;20.390;2022-08-21T11:41:28;691.90;153.60
55365;DHT22;41245;45.384;20.390;2022-08-21T11:46:49;692.10;153.60
55365;DHT22;41245;45.384;20.390;2022-08-21T11:54:35;717.50;179.20
55365;DHT22;41245;45.384;20.390;2022-08-21T11:57:08;717.10;179.20
55365;DHT22;41245;45.384;20.390;2022-08-21T11:59:43;717.50;179.20
55365;DHT22;41245;45.384;20.390;2022-08-21T12:02:14;717.30;179.20
55365;DHT22;41245;45.384;20.390;2022-08-21T12:05:02;717.30;179.20
55365;DHT22;41245;45.384;20.390;2022-08-21T12:07:40;717.10;179.20
55365;DHT22;41245;45.384;20.390;2022-08-21T12:10:14;717.20;179.20
55365;DHT22;41245;45.384;20.390;2022-08-21T12:12:42;716.90;179.20
55365;DHT22;41245;45.384;20.390;2022-08-21T12:15:26;691.90;153.60
55365;DHT22;41245;45.384;20.390;2022-08-21T12:21:25;691.40;153.60
55365;DHT22;41245;45.384;20.390;2022-08-21T12:29:15;666.30;153.60
55365;DHT22;41245;45.384;20.390;2022-08-21T12:40:37;640.30;128.00
55365;DHT22;41245;45.384;20.390;2022-08-21T12:43:05;640.10;128.00
55365;DHT22;41245;45.384;20.390;2022-08-21T12:45:37;640.10;128.00
55365;DHT22;41245;45.384;20.390;2022-08-21T12:48:17;640.00;128.00
55365;DHT22;41245;45.384;20.390;2022-08-21T12:50:45;615.10;128.00
55365;DHT22;41245;45.384;20.390;2022-08-21T12:55:57;589.10;2099.20
55365;DHT22;41245;45.384;20.390;2022-08-21T12:58:27;564.00;2099.20
55365;DHT22;41245;45.384;20.390;2022-08-21T13:00:59;564.00;2099.20
55365;DHT22;41245;45.384;20.390;2022-08-21T13:03:25;563.90;2099.20
55365;DHT22;41245;45.384;20.390;2022-08-21T13:05:51;563.90;2099.20
55365;DHT22;41245;45.384;20.390;2022-08-21T13:08:20;563.90;2099.20
55365;DHT22;41245;45.384;20.390;2022-08-21T13:10:48;563.50;2099.20
55365;DHT22;41245;45.384;20.390;2022-08-21T13:13:22;563.70;2099.20
55365;DHT22;41245;45.384;20.390;2022-08-21T13:15:48;563.80;2099.20
55365;DHT22;41245;45.384;20.390;2022-08-21T13:18:26;563.90;2099.20
55365;DHT22;41245;45.384;20.390;2022-08-21T13:21:03;564.10;2099.20
55365;DHT22;41245;45.384;20.390;2022-08-21T13:23:30;563.90;2099.20
55365;DHT22;41245;45.384;20.390;2022-08-21T13:25:56;564.00;2099.20
55365;DHT22;41245;45.384;20.390;2022-08-21T13:28:23;563.70;2099.20
55365;DHT22;41245;45.384;20.390;2022-08-21T13:30:53;563.60;2099.20
55365;DHT22;41245;45.384;20.390;2022-08-21T13:33:20;563.40;2099.20
55365;DHT22;41245;45.384;20.390;2022-08-21T13:35:52;563.50;2099.20
55365;DHT22;41245;45.384;20.390;2022-08-21T13:38:30;538.40;2073.60
55365;DHT22;41245;45.384;20.390;2022-08-21T13:41:16;538.20;2073.60
55365;DHT22;41245;45.384;20.390;2022-08-21T13:43:46;538.40;2073.60
55365;DHT22;41245;45.384;20.390;2022-08-21T13:46:14;538.40;2073.60
55365;DHT22;41245;45.384;20.390;2022-08-21T13:48:41;538.40;2073.60
55365;DHT22;41245;45.384;20.390;2022-08-21T13:51:08;538.20;2073.60
55365;DHT22;41245;45.384;20.390;2022-08-21T13:56:06;563.30;2099.20
55365;DHT22;41245;45.384;20.390;2022-08-21T14:01:21;563.30;2099.20
55365;DHT22;41245;45.384;20.390;2022-08-21T14:03:49;563.40;2099.20
55365;DHT22;41245;45.384;20.390;2022-08-21T14:06:21;563.40;2099.20
55365;DHT22;41245;45.384;20.390;2022-08-21T14:08:58;563.30;2099.20
55365;DHT22;41245;45.384;20.390;2022-08-21T14:11:25;563.50;2099.20
55365;DHT22;41245;45.384;20.390;2022-08-21T14:13:58;563.50;2099.20
55365;DHT22;41245;45.384;20.390;2022-08-21T14:16:28;563.50;2099.20
55365;DHT22;41245;45.384;20.390;2022-08-21T14:21:38;563.30;2099.20
55365;DHT22;41245;45.384;20.390;2022-08-21T14:26:53;538.50;2073.60
55365;DHT22;41245;45.384;20.390;2022-08-21T14:29:24;538.20;2073.60
55365;DHT22;41245;45.384;20.390;2022-08-21T14:31:53;538.30;2073.60
55365;DHT22;41245;45.384;20.390;2022-08-21T14:34:19;538.00;2073.60
55365;DHT22;41245;45.384;20.390;2022-08-21T14:36:47;538.10;2073.60
55365;DHT22;41245;45.384;20.390;2022-08-21T14:39:13;537.90;2073.60
55365;DHT22;41245;45.384;20.390;2022-08-21T14:41:38;537.90;2073.60
55365;DHT22;41245;45.384;20.390;2022-08-21T14:44:05;538.00;2073.60
55365;DHT22;41245;45.384;20.390;2022-08-21T14:46:31;538.00;2073.60
55365;DHT22;41245;45.384;20.390;2022-08-21T14:48:58;538.10;2073.60
55365;DHT22;41245;45.384;20.390;2022-08-21T14:51:23;537.80;2073.60
55365;DHT22;41245;45.384;20.390;2022-08-21T14:53:49;537.90;2073.60
55365;DHT22;41245;45.384;20.390;2022-08-21T14:56:16;537.90;2073.60
55365;DHT22;41245;45.384;20.390;2022-08-21T14:58:45;537.90;2073.60
55365;DHT22;41245;45.384;20.390;2022-08-21T15:01:14;537.90;2073.60
55365;DHT22;41245;45.384;20.390;2022-08-21T15:03:40;538.00;2073.60
55365;DHT22;41245;45.384;20.390;2022-08-21T15:06:07;538.00;2073.60
55365;DHT22;41245;45.384;20.390;2022-08-21T15:08:34;538.00;2073.60
55365;DHT22;41245;45.384;20.390;2022-08-21T15:11:01;538.10;2073.60
55365;DHT22;41245;45.384;20.390;2022-08-21T15:13:28;538.20;2073.60
55365;DHT22;41245;45.384;20.390;2022-08-21T15:15:54;538.10;2073.60
55365;DHT22;41245;45.384;20.390;2022-08-21T15:18:23;538.20;2073.60
55365;DHT22;41245;45.384;20.390;2022-08-21T15:20:49;538.30;2073.60
55365;DHT22;41245;45.384;20.390;2022-08-21T15:23:15;538.40;2073.60
55365;DHT22;41245;45.384;20.390;2022-08-21T15:25:43;538.30;2073.60
55365;DHT22;41245;45.384;20.390;2022-08-21T15:28:10;538.50;2073.60
55365;DHT22;41245;45.384;20.390;2022-08-21T15:30:38;563.20;2099.20
55365;DHT22;41245;45.384;20.390;2022-08-21T15:33:04;563.20;2099.20
55365;DHT22;41245;45.384;20.390;2022-08-21T15:35:30;563.30;2099.20
55365;DHT22;41245;45.384;20.390;2022-08-21T15:37:56;563.30;2099.20
55365;DHT22;41245;45.384;20.390;2022-08-21T15:40:23;563.40;2099.20
55365;DHT22;41245;45.384;20.390;2022-08-21T15:42:51;563.40;2099.20
55365;DHT22;41245;45.384;20.390;2022-08-21T15:45:19;563.40;2099.20
55365;DHT22;41245;45.384;20.390;2022-08-21T15:47:45;563.50;2099.20
55365;DHT22;41245;45.384;20.390;2022-08-21T15:50:12;563.50;2099.20
55365;DHT22;41245;45.384;20.390;2022-08-21T15:52:38;563.60;2099.20
55365;DHT22;41245;45.384;20.390;2022-08-21T15:55:05;563.60;2099.20
55365;DHT22;41245;45.384;20.390;2022-08-21T15:57:31;563.70;2099.20
55365;DHT22;41245;45.384;20.390;2022-08-21T16:00:00;563.80;2099.20
55365;DHT22;41245;45.384;20.390;2022-08-21T16:02:33;563.80;2099.20
55365;DHT22;41245;45.384;20.390;2022-08-21T16:04:59;563.80;2099.20
55365;DHT22;41245;45.384;20.390;2022-08-21T16:07:25;563.90;2099.20
55365;DHT22;41245;45.384;20.390;2022-08-21T16:09:51;563.90;2099.20
55365;DHT22;41245;45.384;20.390;2022-08-21T16:12:25;563.90;2099.20
55365;DHT22;41245;45.384;20.390;2022-08-21T16:14:53;563.80;2099.20
55365;DHT22;41245;45.384;20.390;2022-08-21T16:17:21;563.80;2099.20
55365;DHT22;41245;45.384;20.390;2022-08-21T16:19:49;563.90;2099.20
55365;DHT22;41245;45.384;20.390;2022-08-21T16:22:15;563.80;2099.20
55365;DHT22;41245;45.384;20.390;2022-08-21T16:24:41;563.70;2099.20